Terminal Aerodrome Forecast
Issued by NWS Louisville, KY

Home | Current Version | Previous Version | Text Only | Print | Product List | Glossary On
Versions: 1 2 3 4 5 6 7 8 9 10 11 12 13 14 15
000
FTUS43 KLMK 230500
TAFSDF
TAF
KSDF 230520Z 2306/2412 24004KT P6SM FEW050
     FM231300 27008KT P6SM SCT050
     FM231700 28008KT P6SM VCTS SCT045CB
     FM232100 32008KT P6SM VCTS BKN045CB
     FM240100 36009KT P6SM BKN045=

USA.gov is the U.S. government's official web portal to all federal, state and local government web resources and services.